Time;durP1;ratioP1;P1;durP2;ratioP2;P2;SDS_P1;SDS_P2;PMS_P1;PMS_P2;Temp;Humidity;BMP_temperature;BMP_pressure;BME280_temperature;BME280_humidity;BME280_pressure;Samples;Min_cycle;Max_cycle;Signal;HPM_P1;HPM_P2
2022/05/07 00:01:57;;;;;;;15.35;3.00;;;23.30;51.00;;;;;;5092222;28;20048;-73
2022/05/07 00:04:22;;;;;;;7.13;2.80;;;23.30;51.40;;;;;;5091450;28;20028;-73
2022/05/07 00:06:49;;;;;;;8.98;2.97;;;23.30;51.30;;;;;;5091599;28;20028;-75
2022/05/07 00:09:15;;;;;;;7.70;2.90;;;23.30;51.20;;;;;;5091289;28;20039;-75
2022/05/07 00:11:41;;;;;;;10.10;2.72;;;23.30;51.20;;;;;;5091520;28;20023;-74
2022/05/07 00:14:06;;;;;;;11.77;3.28;;;23.30;51.40;;;;;;5090779;28;20059;-74
2022/05/07 00:19:17;;;;;;;8.93;3.00;;;23.20;51.40;;;;;;5082073;28;20029;-74
2022/05/07 00:21:43;;;;;;;8.52;2.95;;;23.20;51.50;;;;;;5083177;28;20032;-73
2022/05/07 00:24:09;;;;;;;6.57;2.65;;;23.20;51.50;;;;;;5085682;28;20073;-73
2022/05/07 00:26:34;;;;;;;6.65;2.80;;;23.30;51.70;;;;;;5072462;28;20393;-73
2022/05/07 00:29:00;;;;;;;6.47;3.05;;;23.20;51.70;;;;;;5073213;28;20032;-73
2022/05/07 00:31:26;;;;;;;9.55;2.58;;;23.20;51.70;;;;;;5087472;28;20107;-72
2022/05/07 00:33:51;;;;;;;5.55;2.85;;;23.20;52.10;;;;;;5081950;28;20099;-72
2022/05/07 00:36:19;;;;;;;8.15;2.75;;;23.20;52.00;;;;;;5088169;28;20036;-74
2022/05/07 00:38:45;;;;;;;7.95;2.65;;;23.20;51.90;;;;;;5075159;28;20111;-73
2022/05/07 00:41:11;;;;;;;8.48;2.80;;;23.20;51.90;;;;;;5073662;28;20031;-74
2022/05/07 00:43:39;;;;;;;7.95;3.25;;;23.20;51.20;;;;;;5057391;28;20077;-74
2022/05/07 00:46:05;;;;;;;13.32;3.20;;;23.20;51.30;;;;;;5072000;28;20448;-73
2022/05/07 00:48:32;;;;;;;13.30;3.38;;;23.20;51.10;;;;;;5089921;28;20088;-73
2022/05/07 00:53:44;;;;;;;9.95;3.22;;;23.20;51.30;;;;;;5091013;28;20032;-73
2022/05/07 00:56:10;;;;;;;14.73;3.80;;;23.20;51.60;;;;;;5091273;28;20074;-73
2022/05/07 00:58:36;;;;;;;9.63;3.22;;;23.30;51.40;;;;;;5090133;28;20499;-73
2022/05/07 01:01:02;;;;;;;7.85;3.60;;;23.30;51.60;;;;;;5089896;28;20411;-73
2022/05/07 01:03:28;;;;;;;10.27;3.50;;;23.30;52.00;;;;;;5091111;28;20036;-74
2022/05/07 01:05:54;;;;;;;7.30;3.00;;;23.30;52.00;;;;;;5073303;28;20039;-74
2022/05/07 01:08:20;;;;;;;10.82;3.33;;;23.30;51.90;;;;;;5073374;28;20375;-73
2022/05/07 01:10:47;;;;;;;6.50;3.22;;;23.30;51.90;;;;;;5090085;28;20386;-73
2022/05/07 01:13:14;;;;;;;10.93;3.58;;;23.30;51.90;;;;;;5073176;28;20032;-73
2022/05/07 01:15:48;;;;;;;8.00;3.65;;;23.30;52.00;;;;;;5073257;28;20059;-73
2022/05/07 01:18:16;;;;;;;8.52;3.00;;;23.30;52.00;;;;;;5074034;28;20145;-74
2022/05/07 01:20:42;;;;;;;16.92;3.50;;;23.30;52.20;;;;;;5075928;28;20040;-73
2022/05/07 01:23:09;;;;;;;10.20;3.70;;;23.30;52.00;;;;;;5081364;28;20025;-73
2022/05/07 01:25:35;;;;;;;13.13;3.33;;;23.30;52.10;;;;;;5082987;28;20068;-72
2022/05/07 01:28:03;;;;;;;7.82;3.35;;;23.30;51.70;;;;;;5090456;28;20042;-74
2022/05/07 01:30:30;;;;;;;7.47;3.40;;;23.30;51.40;;;;;;5087390;28;20036;-74
2022/05/07 01:32:56;;;;;;;6.43;3.35;;;23.30;51.30;;;;;;5073344;28;20044;-75
2022/05/07 01:35:22;;;;;;;10.90;3.63;;;23.30;51.30;;;;;;5073468;28;20086;-74
2022/05/07 01:37:51;;;;;;;10.68;4.13;;;23.20;51.10;;;;;;5073617;28;20028;-74
2022/05/07 01:40:17;;;;;;;8.73;3.45;;;23.20;51.00;;;;;;5073354;28;20472;-75
2022/05/07 01:42:45;;;;;;;9.98;3.40;;;23.30;51.00;;;;;;5087840;28;20024;-75
2022/05/07 01:45:12;;;;;;;9.93;3.53;;;23.30;51.00;;;;;;5090756;28;20028;-74
2022/05/07 01:50:26;;;;;;;6.47;3.22;;;23.30;51.50;;;;;;5064696;28;20031;-74
2022/05/07 01:52:51;;;;;;;10.35;4.07;;;23.30;51.00;;;;;;5068496;28;20124;-74
2022/05/07 01:55:17;;;;;;;8.20;3.53;;;23.30;51.00;;;;;;5055158;28;20108;-74
2022/05/07 01:57:47;;;;;;;8.18;3.55;;;23.30;50.90;;;;;;5105787;28;20047;-74
2022/05/07 02:00:13;;;;;;;8.10;3.80;;;23.20;50.80;;;;;;5076405;28;20032;-74
2022/05/07 02:02:40;;;;;;;14.15;3.58;;;23.20;50.80;;;;;;5089809;28;20063;-74
2022/05/07 02:05:14;;;;;;;7.82;3.58;;;23.20;50.70;;;;;;5088641;28;20020;-75
2022/05/07 02:07:40;;;;;;;8.77;3.78;;;23.30;50.80;;;;;;5089890;28;20473;-74
2022/05/07 02:10:07;;;;;;;7.35;3.65;;;23.20;50.80;;;;;;5078122;28;20115;-74
2022/05/07 02:12:34;;;;;;;9.00;4.03;;;23.20;50.80;;;;;;5081413;28;20020;-74
2022/05/07 02:15:00;;;;;;;7.07;3.63;;;23.20;50.90;;;;;;5050152;28;20475;-74
2022/05/07 02:17:26;;;;;;;9.50;4.00;;;23.20;50.80;;;;;;5084646;28;20020;-74
2022/05/07 02:19:52;;;;;;;9.55;4.00;;;23.20;50.80;;;;;;5090443;28;20484;-74
2022/05/07 02:22:18;;;;;;;11.98;3.95;;;23.20;51.00;;;;;;5092642;28;20115;-74
2022/05/07 02:24:43;;;;;;;8.63;3.17;;;23.20;50.90;;;;;;5091182;28;20100;-74
2022/05/07 02:27:18;;;;;;;7.78;3.88;;;23.20;51.00;;;;;;5060763;28;20119;-74
2022/05/07 02:29:44;;;;;;;9.43;3.60;;;23.20;51.00;;;;;;5091411;28;20108;-74
2022/05/07 02:32:13;;;;;;;9.57;3.90;;;23.20;51.00;;;;;;5086703;28;20542;-74
2022/05/07 02:34:42;;;;;;;8.70;3.92;;;23.20;51.10;;;;;;5081765;28;20029;-74
2022/05/07 02:37:16;;;;;;;9.07;3.78;;;23.20;51.10;;;;;;5085029;28;20044;-74
2022/05/07 02:39:48;;;;;;;11.43;3.95;;;23.20;51.30;;;;;;5065970;28;20124;-74
2022/05/07 02:45:03;;;;;;;11.45;4.10;;;23.30;52.10;;;;;;5078746;28;20032;-74
2022/05/07 02:47:29;;;;;;;11.48;4.10;;;23.20;52.40;;;;;;5088942;28;20107;-74
2022/05/07 02:49:55;;;;;;;9.18;3.75;;;23.30;52.50;;;;;;5072078;28;20063;-74
2022/05/07 02:52:21;;;;;;;12.38;4.28;;;23.20;52.70;;;;;;5088316;28;20043;-74
2022/05/07 02:54:47;;;;;;;9.20;4.13;;;23.30;52.60;;;;;;5090119;28;20075;-74
2022/05/07 02:57:13;;;;;;;9.20;4.15;;;23.30;53.00;;;;;;5085179;28;20465;-75
2022/05/07 02:59:41;;;;;;;8.75;3.85;;;23.30;53.00;;;;;;5080314;28;20079;-74
2022/05/07 03:02:08;;;;;;;14.30;3.95;;;23.20;52.80;;;;;;5085713;28;20031;-75
2022/05/07 03:04:34;;;;;;;10.85;3.80;;;23.20;53.60;;;;;;5077846;28;20020;-75
2022/05/07 03:07:00;;;;;;;10.95;3.53;;;23.20;53.00;;;;;;5079880;28;20020;-74
2022/05/07 03:09:26;;;;;;;8.30;3.90;;;23.20;53.00;;;;;;5078635;28;20105;-74
2022/05/07 03:11:51;;;;;;;6.90;3.65;;;23.20;53.30;;;;;;5091082;28;20284;-74
2022/05/07 03:14:22;;;;;;;10.57;3.60;;;23.20;53.10;;;;;;5080600;28;20024;-74
2022/05/07 03:16:48;;;;;;;6.85;3.65;;;23.20;53.50;;;;;;5071281;28;20031;-74
2022/05/07 03:19:15;;;;;;;6.47;3.25;;;23.20;53.40;;;;;;5090784;28;20047;-75
2022/05/07 03:21:42;;;;;;;8.25;3.65;;;23.20;53.40;;;;;;5088375;28;20028;-74
2022/05/07 03:24:10;;;;;;;10.40;3.47;;;23.20;53.40;;;;;;5090667;28;20411;-74
2022/05/07 03:26:38;;;;;;;7.78;3.25;;;23.20;53.20;;;;;;5089073;28;20129;-75
2022/05/07 03:29:04;;;;;;;8.93;3.78;;;23.20;53.40;;;;;;5076343;28;20109;-74
2022/05/07 03:31:30;;;;;;;8.80;3.42;;;23.20;53.30;;;;;;5082151;28;20082;-74
2022/05/07 03:33:56;;;;;;;7.10;3.45;;;23.20;53.20;;;;;;5086065;28;20028;-74
2022/05/07 03:36:27;;;;;;;9.00;4.00;;;23.20;53.20;;;;;;5073876;28;20028;-74
2022/05/07 03:38:54;;;;;;;8.10;3.55;;;23.30;53.50;;;;;;5087173;28;20475;-75
2022/05/07 03:41:26;;;;;;;6.50;3.17;;;23.20;53.60;;;;;;5073720;28;20029;-75
2022/05/07 03:43:52;;;;;;;7.95;3.53;;;23.30;53.70;;;;;;5086511;28;20035;-74
2022/05/07 03:46:18;;;;;;;8.93;4.03;;;23.30;53.40;;;;;;5082626;28;20024;-74
2022/05/07 03:48:55;;;;;;;7.05;3.20;;;23.30;53.30;;;;;;5090209;28;20103;-74
2022/05/07 03:51:21;;;;;;;7.53;3.33;;;23.30;53.80;;;;;;5090918;28;20059;-74
2022/05/07 03:53:47;;;;;;;5.53;3.20;;;23.20;53.30;;;;;;5072428;28;20024;-74
2022/05/07 03:56:19;;;;;;;6.95;3.08;;;23.20;53.80;;;;;;5074296;28;20027;-74
2022/05/07 03:58:45;;;;;;;6.95;3.40;;;23.20;53.90;;;;;;5072887;28;20411;-74
2022/05/07 04:01:19;;;;;;;8.40;3.30;;;23.20;53.50;;;;;;5073274;28;20422;-74
2022/05/07 04:03:46;;;;;;;7.38;3.47;;;23.30;53.70;;;;;;5098493;28;20032;-74
2022/05/07 04:06:13;;;;;;;6.68;3.30;;;23.30;53.50;;;;;;5098320;28;20024;-73
2022/05/07 04:08:39;;;;;;;7.10;3.45;;;23.20;54.20;;;;;;5071632;28;20480;-73
2022/05/07 04:11:07;;;;;;;6.95;3.50;;;23.20;54.10;;;;;;5054840;28;20062;-74
2022/05/07 04:13:33;;;;;;;12.07;3.60;;;23.30;53.60;;;;;;5102005;28;20059;-73
2022/05/07 04:16:00;;;;;;;7.47;3.30;;;23.20;54.10;;;;;;5072085;28;20434;-74
2022/05/07 04:18:32;;;;;;;6.43;3.22;;;23.20;54.00;;;;;;5073828;28;20086;-74
2022/05/07 04:21:00;;;;;;;11.38;2.92;;;23.20;53.70;;;;;;5089720;28;20028;-74
2022/05/07 04:23:26;;;;;;;8.05;3.13;;;23.30;54.20;;;;;;5073105;28;20104;-74
2022/05/07 04:25:53;;;;;;;5.30;2.90;;;23.30;53.80;;;;;;5106661;28;20016;-74
2022/05/07 04:28:22;;;;;;;6.93;2.97;;;23.20;54.20;;;;;;5081935;28;20031;-74
2022/05/07 04:30:50;;;;;;;8.07;2.97;;;23.20;54.70;;;;;;5053326;28;20394;-73
2022/05/07 04:33:22;;;;;;;6.15;3.08;;;23.20;54.30;;;;;;5062692;28;20032;-74
2022/05/07 04:35:49;;;;;;;6.57;3.30;;;23.30;54.10;;;;;;5052719;28;20496;-74
2022/05/07 04:38:19;;;;;;;7.20;3.20;;;23.30;54.20;;;;;;5101915;28;20024;-75
2022/05/07 04:40:45;;;;;;;6.57;3.03;;;23.30;54.00;;;;;;5072037;28;20056;-74
2022/05/07 04:43:17;;;;;;;6.15;3.10;;;23.30;54.00;;;;;;5072611;28;20024;-73
2022/05/07 04:45:43;;;;;;;7.72;3.40;;;23.30;53.60;;;;;;5080712;28;20047;-73
2022/05/07 04:48:12;;;;;;;6.60;3.30;;;23.30;54.30;;;;;;5089711;28;20414;-73
2022/05/07 04:50:38;;;;;;;5.97;3.30;;;23.30;54.00;;;;;;5066927;28;20064;-73
2022/05/07 04:53:33;;;;;;;8.88;3.33;;;23.30;54.30;;;;;;5056857;28;20059;-73
2022/05/07 04:56:07;;;;;;;6.32;3.25;;;23.30;54.10;;;;;;5068251;28;20023;-73
2022/05/07 04:58:38;;;;;;;7.53;3.42;;;23.30;53.70;;;;;;5055246;28;20035;-73
2022/05/07 05:01:05;;;;;;;6.82;2.95;;;23.30;53.90;;;;;;5088566;28;20024;-72
2022/05/07 05:03:37;;;;;;;7.63;3.50;;;23.30;54.20;;;;;;5088744;28;20078;-72
2022/05/07 05:06:08;;;;;;;7.00;3.25;;;23.30;53.90;;;;;;5063953;28;20396;-72
2022/05/07 05:08:47;;;;;;;7.63;2.90;;;23.30;54.50;;;;;;5081483;28;20030;-72
2022/05/07 05:11:14;;;;;;;9.27;3.53;;;23.20;54.20;;;;;;5074449;28;20166;-72
2022/05/07 05:13:42;;;;;;;5.82;3.10;;;23.30;54.10;;;;;;5080578;28;20024;-72
2022/05/07 05:16:07;;;;;;;7.03;3.30;;;23.30;53.80;;;;;;5072351;28;20027;-73
2022/05/07 05:18:42;;;;;;;4.75;3.05;;;23.30;53.60;;;;;;5081273;28;20039;-73
2022/05/07 05:21:11;;;;;;;10.40;3.63;;;23.30;54.00;;;;;;5066453;28;20032;-73
2022/05/07 05:23:55;;;;;;;6.75;2.90;;;23.30;54.30;;;;;;5075878;28;20398;-73
2022/05/07 05:26:21;;;;;;;5.93;3.30;;;23.30;53.90;;;;;;5055017;28;20036;-72
2022/05/07 05:28:52;;;;;;;7.47;2.90;;;23.30;53.80;;;;;;5074859;28;20032;-73
2022/05/07 05:31:19;;;;;;;6.25;3.10;;;23.30;53.90;;;;;;5072345;28;20034;-73
2022/05/07 05:33:51;;;;;;;8.70;3.38;;;23.30;53.80;;;;;;5085343;28;20377;-73
2022/05/07 05:36:27;;;;;;;9.73;3.10;;;23.30;54.00;;;;;;5087976;28;20039;-73
2022/05/07 05:38:54;;;;;;;6.95;3.67;;;23.30;53.80;;;;;;5069179;28;20028;-72
2022/05/07 05:41:24;;;;;;;6.97;2.97;;;23.30;54.10;;;;;;5088153;28;20472;-72
2022/05/07 05:43:51;;;;;;;9.73;3.65;;;23.30;53.80;;;;;;5088183;28;20028;-73
2022/05/07 05:46:17;;;;;;;6.32;3.17;;;23.30;53.60;;;;;;5088639;28;20024;-72
2022/05/07 05:48:45;;;;;;;7.63;3.13;;;23.30;53.80;;;;;;5086220;28;20031;-72
2022/05/07 05:51:11;;;;;;;6.03;2.95;;;23.30;54.40;;;;;;5074237;28;20029;-72
2022/05/07 05:53:41;;;;;;;8.13;3.42;;;23.30;53.70;;;;;;5084772;28;20073;-73
2022/05/07 05:56:10;;;;;;;6.55;3.25;;;23.30;54.00;;;;;;5062813;28;20028;-73
2022/05/07 05:58:41;;;;;;;5.95;3.28;;;23.30;54.20;;;;;;5088745;28;20111;-73
2022/05/07 06:01:09;;;;;;;6.32;3.20;;;23.30;54.20;;;;;;5058141;28;20469;-73
2022/05/07 06:03:44;;;;;;;6.07;3.47;;;23.30;54.60;;;;;;5068634;28;20100;-73
2022/05/07 06:06:14;;;;;;;5.20;3.15;;;23.30;54.30;;;;;;5082363;28;20024;-73
2022/05/07 06:08:42;;;;;;;10.98;3.38;;;23.30;54.20;;;;;;5091520;28;20510;-73
2022/05/07 06:11:08;;;;;;;5.95;3.30;;;23.30;54.60;;;;;;5074160;28;20029;-73
2022/05/07 06:13:34;;;;;;;7.85;3.40;;;23.30;54.40;;;;;;5074023;28;20052;-73
2022/05/07 06:16:00;;;;;;;8.85;3.15;;;23.30;54.30;;;;;;5088430;28;20082;-73
2022/05/07 06:18:26;;;;;;;7.25;3.20;;;23.30;54.30;;;;;;5091456;28;20031;-73
2022/05/07 06:21:01;;;;;;;7.70;3.30;;;23.30;54.40;;;;;;5089383;28;20384;-73
2022/05/07 06:23:29;;;;;;;10.32;3.22;;;23.30;54.40;;;;;;5084000;28;20035;-73
2022/05/07 06:28:39;;;;;;;6.07;3.03;;;23.30;54.80;;;;;;5091341;28;20027;-73
2022/05/07 06:31:06;;;;;;;8.23;3.42;;;23.30;54.70;;;;;;5091214;28;20024;-73
2022/05/07 06:33:32;;;;;;;6.93;3.00;;;23.30;54.60;;;;;;5074241;28;20531;-73
2022/05/07 06:36:06;;;;;;;6.45;3.10;;;23.40;54.90;;;;;;5088195;28;20027;-73
2022/05/07 06:38:35;;;;;;;;;;;23.40;54.80;;;;;;5057585;28;20402;-73
2022/05/07 06:41:03;;;;;;;6.50;3.17;;;23.40;55.40;;;;;;5086362;28;20291;-73
2022/05/07 06:43:31;;;;;;;5.83;3.50;;;23.40;54.80;;;;;;5087545;28;20500;-74
2022/05/07 06:46:03;;;;;;;4.45;2.70;;;23.40;55.10;;;;;;5091749;28;20395;-74
2022/05/07 06:48:30;;;;;;;6.63;3.25;;;23.40;54.90;;;;;;5088093;28;20107;-73
2022/05/07 06:51:02;;;;;;;5.75;3.22;;;23.40;55.50;;;;;;5078322;28;20024;-73
2022/05/07 06:53:28;;;;;;;5.05;2.80;;;23.40;55.10;;;;;;5085110;28;20016;-73
2022/05/07 06:55:59;;;;;;;6.00;3.30;;;23.40;55.40;;;;;;5090133;28;20020;-73
2022/05/07 06:58:34;;;;;;;8.20;3.25;;;23.30;55.20;;;;;;5084605;28;20500;-73
2022/05/07 07:01:01;;;;;;;5.72;2.85;;;23.40;55.10;;;;;;5091456;28;20038;-73
2022/05/07 07:03:28;;;;;;;7.35;2.97;;;23.40;55.00;;;;;;5092052;28;20039;-73
2022/05/07 07:05:56;;;;;;;5.95;3.10;;;23.30;55.10;;;;;;5079917;28;20035;-73
2022/05/07 07:08:22;;;;;;;6.65;3.10;;;23.40;55.70;;;;;;5083001;28;20024;-74
2022/05/07 07:10:48;;;;;;;9.60;3.17;;;23.40;55.30;;;;;;5083779;28;20043;-73
2022/05/07 07:13:16;;;;;;;4.72;2.70;;;23.40;55.30;;;;;;5084761;28;20366;-73
2022/05/07 07:15:42;;;;;;;4.68;3.03;;;23.40;55.10;;;;;;5079498;28;20024;-74
2022/05/07 07:18:12;;;;;;;6.30;3.05;;;23.40;55.10;;;;;;5079872;28;20083;-74
2022/05/07 07:20:39;;;;;;;5.50;2.92;;;23.40;55.20;;;;;;5081734;28;20031;-75
2022/05/07 07:23:05;;;;;;;8.35;3.53;;;23.40;55.40;;;;;;5086576;28;20496;-74
2022/05/07 07:25:31;;;;;;;5.88;3.15;;;23.40;55.50;;;;;;5090130;28;20368;-74
2022/05/07 07:27:58;;;;;;;9.15;2.83;;;23.40;55.70;;;;;;5079824;28;20032;-74
2022/05/07 07:30:24;;;;;;;6.78;3.00;;;23.50;55.60;;;;;;5082171;28;20016;-75
2022/05/07 07:32:50;;;;;;;5.93;3.30;;;23.50;55.60;;;;;;5079867;28;20023;-74
2022/05/07 07:35:16;;;;;;;6.95;3.10;;;23.50;55.70;;;;;;5090060;28;20058;-74
2022/05/07 07:37:45;;;;;;;5.57;3.10;;;23.50;55.80;;;;;;5080405;28;20451;-74
2022/05/07 07:40:12;;;;;;;10.93;3.40;;;23.50;55.60;;;;;;5086298;28;20028;-74
2022/05/07 07:42:40;;;;;;;6.35;3.22;;;23.50;55.60;;;;;;5072533;28;20063;-74
2022/05/07 07:47:59;;;;;;;9.07;2.83;;;23.50;55.40;;;;;;5083251;28;20212;-74
2022/05/07 07:50:31;;;;;;;12.40;3.33;;;23.50;55.60;;;;;;5086380;28;20060;-74
2022/05/07 07:53:00;;;;;;;9.38;3.22;;;23.50;55.70;;;;;;5092412;28;20390;-75
2022/05/07 07:55:26;;;;;;;7.93;3.10;;;23.50;55.60;;;;;;5079985;28;20341;-75
2022/05/07 07:57:56;;;;;;;12.40;3.33;;;23.50;55.50;;;;;;5069724;28;20021;-75
2022/05/07 08:00:23;;;;;;;11.73;3.80;;;23.50;55.90;;;;;;5084950;28;20050;-74
2022/05/07 08:02:56;;;;;;;10.63;3.85;;;23.60;55.00;;;;;;5079989;28;20082;-74
2022/05/07 08:05:23;;;;;;;11.18;4.65;;;23.60;53.10;;;;;;5073593;28;20028;-74
2022/05/07 08:13:19;;;;;;;17.88;4.43;;;23.70;52.30;;;;;;5083478;28;20081;-74
2022/05/07 08:15:45;;;;;;;15.55;4.47;;;23.70;53.70;;;;;;5090745;28;20020;-73
2022/05/07 08:18:12;;;;;;;16.10;3.90;;;23.70;52.50;;;;;;5088514;28;20112;-74
2022/05/07 08:20:38;;;;;;;16.38;4.93;;;23.70;52.60;;;;;;5091428;28;20036;-74
2022/05/07 08:23:15;;;;;;;16.65;4.65;;;23.70;51.60;;;;;;5090501;28;20028;-75
2022/05/07 08:25:41;;;;;;;20.08;4.95;;;23.70;52.20;;;;;;5088612;28;20103;-74
2022/05/07 08:28:07;;;;;;;14.57;4.18;;;23.50;49.40;;;;;;5074100;28;20568;-75
2022/05/07 08:30:33;;;;;;;21.92;4.70;;;23.60;50.80;;;;;;5075824;28;20378;-75
2022/05/07 08:32:58;;;;;;;21.85;4.65;;;23.60;50.60;;;;;;5053399;28;20028;-75
2022/05/07 08:35:24;;;;;;;16.80;4.25;;;23.60;50.00;;;;;;5088265;28;20480;-74
2022/05/07 08:37:52;;;;;;;15.63;3.90;;;23.70;50.60;;;;;;5090586;28;20488;-74
2022/05/07 08:40:20;;;;;;;10.35;3.92;;;23.60;50.40;;;;;;5091530;28;20035;-75
2022/05/07 08:42:45;;;;;;;10.75;3.33;;;23.60;49.30;;;;;;5090221;28;20138;-75
2022/05/07 08:45:12;;;;;;;13.45;3.50;;;23.60;48.20;;;;;;5090452;28;20500;-75
2022/05/07 08:47:40;;;;;;;16.42;4.03;;;23.60;48.40;;;;;;5091229;28;20035;-75
2022/05/07 08:50:11;;;;;;;7.13;3.30;;;23.60;49.20;;;;;;5090168;28;20054;-75
2022/05/07 08:52:43;;;;;;;11.68;3.33;;;23.60;48.70;;;;;;5090269;28;20282;-75
2022/05/07 08:55:11;;;;;;;11.98;3.47;;;23.60;49.10;;;;;;5091179;28;20451;-75
2022/05/07 08:57:39;;;;;;;12.57;3.27;;;23.50;49.30;;;;;;5091348;28;20118;-75
2022/05/07 09:00:06;;;;;;;10.68;3.67;;;23.50;48.70;;;;;;5091114;28;20024;-75
2022/05/07 09:02:41;;;;;;;5.93;3.47;;;23.50;49.30;;;;;;5091248;28;20040;-75
2022/05/07 09:05:09;;;;;;;12.68;3.25;;;23.50;47.70;;;;;;5089856;28;20028;-75
2022/05/07 09:07:41;;;;;;;7.45;3.55;;;23.50;46.60;;;;;;5089265;28;20047;-75
2022/05/07 09:10:13;;;;;;;8.52;3.78;;;23.50;47.50;;;;;;5090534;28;20020;-75
2022/05/07 09:12:39;;;;;;;10.20;3.38;;;23.60;45.60;;;;;;5078263;28;20029;-74
2022/05/07 09:15:07;;;;;;;13.02;3.60;;;23.60;46.30;;;;;;5077770;28;20024;-74
2022/05/07 09:17:33;;;;;;;12.00;3.65;;;23.60;46.10;;;;;;5075259;28;20040;-75
2022/05/07 09:20:11;;;;;;;7.22;3.35;;;23.60;47.30;;;;;;5068148;28;20024;-75
2022/05/07 09:22:56;;;;;;;7.18;3.20;;;23.60;46.50;;;;;;5079450;28;20054;-75
2022/05/07 09:25:25;;;;;;;6.78;3.25;;;23.60;47.70;;;;;;5086467;28;20552;-75
2022/05/07 09:27:54;;;;;;;7.85;3.33;;;23.60;46.70;;;;;;5065283;28;20028;-75
2022/05/07 09:30:27;;;;;;;7.05;2.80;;;23.70;46.00;;;;;;5092694;22;20055;-87
2022/05/07 09:32:55;;;;;;;8.98;2.90;;;23.70;47.00;;;;;;5087435;28;20031;-87
2022/05/07 09:35:47;;;;;;;11.75;2.60;;;23.60;46.70;;;;;;5087135;28;20051;-86
2022/05/07 09:38:15;;;;;;;11.25;3.95;;;23.70;46.70;;;;;;5087606;28;20388;-86
2022/05/07 09:40:42;;;;;;;15.38;4.18;;;23.60;46.90;;;;;;5103815;28;20349;-87
2022/05/07 09:43:10;;;;;;;13.40;4.30;;;23.70;46.80;;;;;;5095026;28;20024;-88
2022/05/07 09:45:38;;;;;;;9.75;4.97;;;23.70;46.70;;;;;;5095101;28;20073;-85
2022/05/07 09:48:05;;;;;;;12.70;5.30;;;23.70;46.10;;;;;;5101026;28;20543;-84
2022/05/07 09:58:41;;;;;;;12.50;4.68;;;23.70;46.00;;;;;;5094354;28;20029;-78
2022/05/07 10:01:21;;;;;;;10.68;4.40;;;23.60;46.10;;;;;;5094598;28;20024;-78
2022/05/07 10:04:06;;;;;;;15.43;4.85;;;23.60;46.60;;;;;;5094126;28;20059;-79
2022/05/07 10:06:53;;;;;;;12.88;4.47;;;23.60;46.80;;;;;;5094386;28;20028;-78
2022/05/07 10:09:43;;;;;;;12.27;4.35;;;23.60;46.50;;;;;;5093185;28;20056;-78
2022/05/07 10:12:17;;;;;;;11.27;4.25;;;23.60;47.30;;;;;;5094148;28;20024;-78
2022/05/07 10:14:42;;;;;;;10.77;4.07;;;23.60;47.40;;;;;;5093994;28;20027;-78
2022/05/07 10:17:10;;;;;;;10.98;3.97;;;23.60;47.20;;;;;;5094316;28;20028;-78
2022/05/07 10:19:46;;;;;;;13.38;4.13;;;23.60;47.20;;;;;;5094168;28;20057;-79
2022/05/07 10:22:24;;;;;;;8.27;3.92;;;23.60;47.50;;;;;;5094583;28;20024;-79
2022/05/07 10:25:06;;;;;;;11.70;4.10;;;23.60;47.30;;;;;;5093857;28;20131;-79
2022/05/07 10:27:41;;;;;;;8.00;4.07;;;23.60;47.80;;;;;;5092676;28;20400;-79
2022/05/07 10:30:14;;;;;;;8.25;4.03;;;23.60;47.70;;;;;;5093767;28;20051;-78
2022/05/07 10:32:58;;;;;;;9.20;3.45;;;23.60;47.80;;;;;;5093783;28;20043;-79
2022/05/07 10:35:47;;;;;;;10.23;4.25;;;23.60;48.00;;;;;;5093799;28;20105;-79
2022/05/07 10:38:36;;;;;;;6.38;3.15;;;23.60;48.00;;;;;;5092575;28;20028;-79
2022/05/07 10:41:19;;;;;;;6.70;3.50;;;23.60;48.30;;;;;;5092652;28;20020;-79
2022/05/07 10:43:59;;;;;;;9.18;3.72;;;23.60;48.40;;;;;;5074963;28;20028;-79
2022/05/07 10:46:35;;;;;;;8.60;3.95;;;23.60;48.50;;;;;;5092452;28;20059;-79
2022/05/07 10:49:01;;;;;;;7.32;3.40;;;23.60;48.30;;;;;;5093499;28;20122;-79
2022/05/07 10:51:35;;;;;;;7.50;3.90;;;23.60;48.50;;;;;;5093814;28;20024;-79
2022/05/07 10:54:14;;;;;;;10.60;3.90;;;23.50;48.70;;;;;;5091711;28;20020;-79
2022/05/07 10:56:55;;;;;;;9.25;3.90;;;23.60;48.90;;;;;;5093613;28;20111;-79
2022/05/07 10:59:22;;;;;;;7.57;3.60;;;23.50;48.80;;;;;;5093463;28;20116;-79
2022/05/07 11:01:48;;;;;;;7.00;3.63;;;23.50;48.90;;;;;;5092030;28;20024;-79
2022/05/07 11:04:18;;;;;;;8.07;3.53;;;23.50;49.00;;;;;;5091724;28;20536;-79
2022/05/07 11:06:48;;;;;;;8.07;3.60;;;23.50;49.10;;;;;;5091997;28;20065;-78
2022/05/07 11:09:17;;;;;;;10.23;3.80;;;23.50;49.10;;;;;;5092986;28;20385;-78
2022/05/07 11:11:49;;;;;;;8.88;3.55;;;23.50;49.10;;;;;;5093216;28;20392;-79
2022/05/07 11:14:24;;;;;;;8.20;3.10;;;23.50;49.10;;;;;;5092709;28;20460;-79
2022/05/07 11:16:52;;;;;;;6.97;3.40;;;23.50;49.20;;;;;;5091947;28;20056;-79
2022/05/07 11:19:29;;;;;;;6.68;3.35;;;23.60;49.20;;;;;;5091672;28;20038;-79
2022/05/07 11:21:56;;;;;;;7.32;3.60;;;23.60;49.20;;;;;;5092963;28;20093;-79
2022/05/07 11:24:25;;;;;;;8.27;3.13;;;23.60;49.20;;;;;;5057656;28;20507;-79
2022/05/07 11:26:56;;;;;;;6.38;3.40;;;23.60;49.20;;;;;;5093024;28;20028;-79
2022/05/07 11:29:23;;;;;;;7.55;3.60;;;23.50;49.20;;;;;;5092500;28;20442;-79
2022/05/07 11:31:56;;;;;;;6.28;3.17;;;23.60;49.30;;;;;;5092696;28;20020;-79
2022/05/07 11:34:39;;;;;;;5.18;3.22;;;23.60;49.30;;;;;;5074087;28;20586;-78
2022/05/07 11:37:14;;;;;;;6.63;3.53;;;23.60;49.30;;;;;;5092754;28;20028;-79
2022/05/07 11:39:51;;;;;;;8.25;3.42;;;23.50;49.30;;;;;;5091221;28;20260;-79
2022/05/07 11:42:28;;;;;;;5.38;3.00;;;23.50;49.30;;;;;;5091377;28;20059;-79
2022/05/07 11:47:53;;;;;;;7.13;3.00;;;23.50;49.40;;;;;;5091263;28;20032;-78
2022/05/07 11:50:30;;;;;;;5.72;3.00;;;23.50;49.40;;;;;;5092133;28;20031;-78
2022/05/07 11:53:07;;;;;;;8.45;3.38;;;23.50;49.40;;;;;;5091042;28;20044;-78
2022/05/07 11:55:33;;;;;;;6.32;3.28;;;23.50;49.50;;;;;;5092276;28;20122;-78
2022/05/07 11:57:59;;;;;;;7.63;2.97;;;23.50;49.50;;;;;;5092246;28;20053;-79
2022/05/07 12:00:27;;;;;;;6.43;3.25;;;23.50;49.50;;;;;;5092020;28;20020;-78
2022/05/07 12:03:00;;;;;;;6.72;3.30;;;23.50;49.50;;;;;;5091840;28;20024;-77
2022/05/07 12:05:37;;;;;;;5.38;2.88;;;23.60;49.50;;;;;;5092120;28;20036;-78
2022/05/07 12:08:16;;;;;;;5.55;3.28;;;23.50;49.50;;;;;;5092244;28;20437;-79
2022/05/07 12:10:42;;;;;;;6.83;3.10;;;23.50;49.50;;;;;;5073769;28;20032;-80
2022/05/07 12:13:10;;;;;;;5.45;3.10;;;23.60;49.60;;;;;;5091936;28;20107;-81
2022/05/07 12:18:23;;;;;;;6.25;3.45;;;23.50;49.50;;;;;;5091997;28;20024;-81
2022/05/07 12:20:49;;;;;;;7.60;3.15;;;23.60;49.60;;;;;;5091751;28;20028;-80
2022/05/07 12:31:27;;;;;;;5.07;2.80;;;23.60;49.60;;;;;;5091767;28;20028;-80
2022/05/07 12:33:54;;;;;;;7.50;3.35;;;23.60;49.70;;;;;;5091862;28;20055;-81
2022/05/07 12:36:20;;;;;;;5.72;3.05;;;23.60;49.60;;;;;;5090400;28;20051;-80
2022/05/07 12:38:45;;;;;;;5.38;3.25;;;23.60;49.70;;;;;;5090196;28;20108;-80
2022/05/07 12:41:13;;;;;;;5.22;2.85;;;23.50;49.70;;;;;;5091588;28;20110;-80
2022/05/07 12:43:39;;;;;;;4.57;2.53;;;23.60;49.80;;;;;;5090150;28;20130;-80
2022/05/07 12:46:05;;;;;;;4.35;2.78;;;23.50;49.70;;;;;;5091590;28;20062;-81
2022/05/07 12:48:32;;;;;;;5.00;2.83;;;23.50;49.70;;;;;;5090634;28;20024;-82
2022/05/07 12:50:58;;;;;;;7.50;3.00;;;23.50;49.80;;;;;;5090007;28;20103;-81
2022/05/07 12:53:23;;;;;;;5.63;3.03;;;23.60;49.90;;;;;;5091272;28;20024;-81
2022/05/07 12:55:49;;;;;;;6.43;2.85;;;23.60;49.90;;;;;;5090383;28;20286;-81
2022/05/07 12:58:15;;;;;;;6.35;3.10;;;23.50;49.90;;;;;;5091483;28;20586;-81
2022/05/07 13:00:41;;;;;;;7.03;3.38;;;23.50;49.80;;;;;;5091334;28;20028;-81
2022/05/07 13:03:08;;;;;;;4.13;2.83;;;23.50;49.90;;;;;;5091496;28;20031;-81
2022/05/07 13:05:35;;;;;;;5.38;2.53;;;23.50;49.80;;;;;;5091120;28;20032;-81
2022/05/07 13:08:03;;;;;;;5.80;3.10;;;23.50;49.80;;;;;;5091423;28;20028;-81
2022/05/07 13:10:31;;;;;;;4.83;2.73;;;23.50;49.80;;;;;;5089984;28;20036;-81
2022/05/07 13:12:57;;;;;;;5.50;3.03;;;23.50;49.90;;;;;;5073098;28;20654;-80
2022/05/07 13:15:23;;;;;;;6.35;3.00;;;23.60;49.90;;;;;;5089974;28;20050;-80
2022/05/07 13:17:49;;;;;;;6.18;2.67;;;23.60;49.90;;;;;;5094155;28;20125;-81
2022/05/07 13:20:14;;;;;;;5.38;2.92;;;23.60;49.90;;;;;;5077408;28;20042;-81
2022/05/07 13:22:40;;;;;;;5.82;3.00;;;23.60;49.90;;;;;;5095680;28;20063;-81
2022/05/07 13:25:06;;;;;;;3.58;2.70;;;23.50;49.90;;;;;;5094178;28;20031;-81
2022/05/07 13:27:33;;;;;;;5.05;2.75;;;23.60;49.90;;;;;;5094311;28;20116;-80
2022/05/07 13:29:59;;;;;;;5.57;2.80;;;23.60;49.90;;;;;;5095148;28;20020;-80
2022/05/07 13:32:25;;;;;;;5.07;2.80;;;23.60;49.90;;;;;;5094192;28;20504;-81
2022/05/07 13:34:51;;;;;;;4.25;2.60;;;23.60;49.90;;;;;;5093711;28;20046;-80
2022/05/07 13:37:18;;;;;;;3.53;2.47;;;23.60;50.00;;;;;;5093867;28;20035;-81
2022/05/07 13:39:44;;;;;;;3.83;2.58;;;23.50;49.90;;;;;;5095159;28;20024;-82